createdAt,value
2023-08-07T00:02:01.512Z,8.77
2023-08-07T00:04:34.598Z,12.65
2023-08-07T00:07:08.121Z,7.35
2023-08-07T00:09:43.953Z,8.63
2023-08-07T00:12:17.224Z,9.70
2023-08-07T00:14:53.281Z,11.25
2023-08-07T00:17:26.612Z,11.02
2023-08-07T00:19:59.997Z,13.10
2023-08-07T00:22:33.264Z,12.68
2023-08-07T00:25:08.415Z,13.80
2023-08-07T00:27:41.627Z,16.58
2023-08-07T00:30:19.276Z,13.20
2023-08-07T00:32:52.554Z,13.57
2023-08-07T00:35:25.748Z,16.75
2023-08-07T00:37:59.263Z,22.38
2023-08-07T00:40:41.017Z,18.00
2023-08-07T00:43:14.794Z,22.85
2023-08-07T00:45:50.657Z,18.55
2023-08-07T00:48:25.920Z,20.67
2023-08-07T00:51:00.979Z,20.50
2023-08-07T00:53:35.181Z,18.83
2023-08-07T00:56:10.375Z,26.05
2023-08-07T00:58:44.045Z,23.88
2023-08-07T01:01:17.060Z,23.40
2023-08-07T01:03:50.427Z,25.58
2023-08-07T01:06:24.538Z,26.83
2023-08-07T01:08:59.219Z,33.15
2023-08-07T01:11:41.700Z,25.45
2023-08-07T01:14:24.785Z,24.23
2023-08-07T01:17:03.195Z,29.73
2023-08-07T01:19:38.759Z,23.63
2023-08-07T01:22:15.408Z,19.63
2023-08-07T01:24:49.629Z,23.20
2023-08-07T01:27:37.538Z,26.73
2023-08-07T01:30:20.319Z,28.58
2023-08-07T01:33:03.832Z,32.45
2023-08-07T01:35:43.992Z,29.90
2023-08-07T01:38:21.574Z,22.98
2023-08-07T01:40:55.493Z,21.83
2023-08-07T01:43:29.886Z,15.10
2023-08-07T01:46:03.154Z,10.38
2023-08-07T01:48:36.183Z,12.07
2023-08-07T01:51:09.551Z,11.20
2023-08-07T01:53:44.958Z,13.00
2023-08-07T01:56:18.762Z,7.50
2023-08-07T01:58:52.735Z,6.65
2023-08-07T02:01:26.489Z,12.30
2023-08-07T02:03:59.967Z,7.35
2023-08-07T02:06:33.556Z,10.82
2023-08-07T02:09:09.263Z,11.07
2023-08-07T02:11:42.891Z,6.75
2023-08-07T02:14:16.519Z,9.68
2023-08-07T02:16:49.825Z,10.13
2023-08-07T02:19:23.477Z,12.48
2023-08-07T02:21:57.077Z,12.10
2023-08-07T02:24:32.686Z,9.43
2023-08-07T02:27:06.344Z,11.32
2023-08-07T02:29:39.964Z,12.63
2023-08-07T02:32:13.601Z,13.65
2023-08-07T02:34:46.874Z,15.07
2023-08-07T02:37:20.412Z,13.45
2023-08-07T02:39:56.717Z,19.45
2023-08-07T02:42:30.209Z,14.40
2023-08-07T02:45:04.578Z,13.57
2023-08-07T02:47:38.033Z,16.13
2023-08-07T02:50:12.186Z,17.55
2023-08-07T02:52:46.140Z,14.55
2023-08-07T02:55:21.635Z,13.10
2023-08-07T02:57:55.234Z,13.18
2023-08-07T03:00:29.575Z,14.43
2023-08-07T03:03:03.326Z,13.73
2023-08-07T03:05:36.792Z,15.02
2023-08-07T03:08:09.938Z,16.33
2023-08-07T03:10:45.467Z,18.63
2023-08-07T03:13:18.867Z,15.73
2023-08-07T03:15:52.927Z,14.70
2023-08-07T03:18:26.609Z,17.40
2023-08-07T03:21:00.666Z,15.95
2023-08-07T03:23:34.926Z,15.43
2023-08-07T03:28:51.249Z,17.13
2023-08-07T03:31:24.491Z,14.50
2023-08-07T03:33:58.109Z,15.20
2023-08-07T03:36:33.718Z,18.75
2023-08-07T03:39:07.848Z,17.67
2023-08-07T03:41:43.482Z,14.90
2023-08-07T03:44:18.895Z,17.10
2023-08-07T03:46:52.492Z,17.45
2023-08-07T03:49:30.043Z,20.80
2023-08-07T03:52:05.146Z,20.67
2023-08-07T03:54:38.881Z,21.08
2023-08-07T03:57:16.326Z,22.30
2023-08-07T03:59:50.298Z,17.65
2023-08-07T04:02:23.188Z,17.05
2023-08-07T04:04:56.792Z,16.20
2023-08-07T04:07:30.522Z,17.85
2023-08-07T04:10:03.507Z,14.02
2023-08-07T04:12:39.175Z,20.35
2023-08-07T04:15:13.638Z,17.60
2023-08-07T04:17:47.090Z,22.40
2023-08-07T04:20:20.405Z,19.65
2023-08-07T04:22:54.028Z,17.60
2023-08-07T04:25:28.774Z,20.05
2023-08-07T04:28:04.181Z,16.90
2023-08-07T04:30:39.989Z,21.05
2023-08-07T04:33:16.132Z,16.02
2023-08-07T04:35:50.205Z,18.85
2023-08-07T04:38:23.489Z,19.85
2023-08-07T04:40:57.033Z,18.38
2023-08-07T04:43:33.217Z,15.60
2023-08-07T04:46:07.911Z,15.00
2023-08-07T04:48:41.257Z,17.38
2023-08-07T04:51:14.679Z,16.95
2023-08-07T04:53:48.793Z,14.77
2023-08-07T04:56:22.626Z,14.52
2023-08-07T04:58:58.243Z,12.80
2023-08-07T05:01:32.404Z,10.93
2023-08-07T05:04:07.080Z,9.63
2023-08-07T05:06:41.170Z,12.98
2023-08-07T05:09:15.123Z,10.95
2023-08-07T05:11:51.069Z,12.45
2023-08-07T05:14:26.262Z,10.93
2023-08-07T05:17:03.729Z,12.07
2023-08-07T05:19:37.429Z,16.33
2023-08-07T05:22:11.541Z,12.68
2023-08-07T05:24:46.699Z,18.33
2023-08-07T05:27:20.004Z,15.35
2023-08-07T05:29:55.879Z,12.02
2023-08-07T05:32:30.566Z,11.57
2023-08-07T05:35:03.876Z,10.85
2023-08-07T05:37:37.147Z,14.45
2023-08-07T05:40:14.516Z,11.55
2023-08-07T05:42:53.007Z,9.88
2023-08-07T05:45:28.179Z,10.25
2023-08-07T05:48:01.408Z,11.90
2023-08-07T05:50:35.097Z,11.55
2023-08-07T05:53:08.608Z,12.50
2023-08-07T05:55:46.053Z,9.77
2023-08-07T05:58:19.368Z,12.50
2023-08-07T06:00:55.112Z,10.32
2023-08-07T06:03:28.829Z,7.78
2023-08-07T06:06:06.731Z,8.50
2023-08-07T06:08:39.598Z,7.55
2023-08-07T06:11:12.554Z,10.63
2023-08-07T06:13:47.906Z,7.88
2023-08-07T06:16:22.916Z,9.88
2023-08-07T06:18:56.627Z,7.57
2023-08-07T06:21:32.441Z,7.82
2023-08-07T06:24:05.981Z,8.88
2023-08-07T06:26:39.350Z,7.78
2023-08-07T06:29:12.434Z,8.80
2023-08-07T06:31:47.911Z,7.72
2023-08-07T06:34:20.913Z,9.73
2023-08-07T06:36:54.498Z,7.75
2023-08-07T06:39:29.259Z,9.38
2023-08-07T06:42:03.053Z,10.88
2023-08-07T06:44:41.096Z,9.00
2023-08-07T06:47:16.315Z,8.30
2023-08-07T06:49:50.791Z,9.73
2023-08-07T06:52:24.598Z,10.07
2023-08-07T06:55:00.121Z,14.15
2023-08-07T06:57:35.013Z,10.43
2023-08-07T07:00:09.114Z,10.27
2023-08-07T07:02:45.014Z,12.85
2023-08-07T07:05:20.552Z,10.52
2023-08-07T07:07:54.088Z,9.00
2023-08-07T07:10:27.354Z,9.32
2023-08-07T07:13:00.664Z,10.55
2023-08-07T07:15:33.561Z,11.57
2023-08-07T07:18:08.823Z,9.15
2023-08-07T07:20:42.014Z,8.45
2023-08-07T07:23:16.310Z,9.18
2023-08-07T07:25:49.470Z,9.68
2023-08-07T07:28:22.952Z,10.02
2023-08-07T07:30:56.698Z,8.48
2023-08-07T07:33:34.057Z,8.98
2023-08-07T07:36:07.718Z,8.15
2023-08-07T07:38:42.832Z,12.13
2023-08-07T07:41:16.654Z,14.52
2023-08-07T07:43:50.116Z,13.52
2023-08-07T07:46:23.391Z,11.25
2023-08-07T07:48:59.179Z,16.98
2023-08-07T07:51:33.163Z,12.73
2023-08-07T07:56:42.343Z,10.15
2023-08-07T07:59:15.226Z,12.70
2023-08-07T08:01:48.443Z,12.98
2023-08-07T08:04:24.033Z,10.38
2023-08-07T08:06:57.505Z,11.13
2023-08-07T08:09:30.837Z,11.57
2023-08-07T08:12:04.877Z,13.80
2023-08-07T08:14:50.982Z,12.35
2023-08-07T08:17:30.682Z,10.50
2023-08-07T08:20:05.875Z,11.20
2023-08-07T08:22:39.571Z,13.27
2023-08-07T08:25:14.393Z,13.38
2023-08-07T08:27:48.562Z,10.63
2023-08-07T08:30:22.240Z,11.90
2023-08-07T08:32:56.394Z,12.27
2023-08-07T08:35:32.833Z,11.93
2023-08-07T08:38:07.987Z,15.60
2023-08-07T08:40:44.792Z,14.02
2023-08-07T08:43:24.522Z,12.25
2023-08-07T08:45:58.080Z,12.38
2023-08-07T08:48:34.008Z,8.98
2023-08-07T08:51:11.380Z,12.30
2023-08-07T08:53:44.817Z,11.32
2023-08-07T08:56:17.850Z,13.57
2023-08-07T08:58:51.429Z,13.73
2023-08-07T09:01:26.380Z,9.45
2023-08-07T09:04:02.669Z,9.65
2023-08-07T09:06:39.648Z,13.25
2023-08-07T09:09:15.974Z,10.45
2023-08-07T09:11:50.412Z,12.10
2023-08-07T09:14:29.414Z,9.40
2023-08-07T09:17:05.740Z,11.98
2023-08-07T09:19:39.325Z,10.63
2023-08-07T09:22:14.929Z,10.10
2023-08-07T09:24:48.968Z,12.98
2023-08-07T09:27:23.216Z,8.45
2023-08-07T09:29:58.982Z,9.02
2023-08-07T09:32:34.230Z,8.75
2023-08-07T09:35:11.436Z,5.78
2023-08-07T09:37:50.148Z,6.18
2023-08-07T09:40:26.683Z,7.68
2023-08-07T09:43:03.679Z,7.53
2023-08-07T09:45:39.389Z,9.35
2023-08-07T09:48:14.516Z,7.82
2023-08-07T09:50:50.849Z,7.40
2023-08-07T09:53:31.270Z,8.77
2023-08-07T09:56:05.480Z,9.45
2023-08-07T09:58:39.160Z,7.65
2023-08-07T10:01:13.935Z,8.10
2023-08-07T10:03:48.353Z,10.45
2023-08-07T10:06:21.944Z,7.15
2023-08-07T10:08:57.844Z,6.43
2023-08-07T10:11:34.079Z,8.10
2023-08-07T10:14:07.531Z,12.77
2023-08-07T10:16:44.047Z,9.27
2023-08-07T10:19:17.418Z,5.82
2023-08-07T10:21:52.425Z,13.65
2023-08-07T10:24:28.637Z,8.27
2023-08-07T10:27:03.443Z,6.47
2023-08-07T10:29:38.545Z,7.25
2023-08-07T10:32:12.971Z,7.90
2023-08-07T10:34:47.661Z,7.57
2023-08-07T10:37:43.415Z,9.15
2023-08-07T10:40:21.281Z,8.45
2023-08-07T10:43:03.068Z,8.13
2023-08-07T10:45:39.042Z,8.48
2023-08-07T10:48:16.745Z,6.95
2023-08-07T10:51:02.539Z,7.63
2023-08-07T10:53:36.815Z,7.57
2023-08-07T10:56:14.582Z,8.55
2023-08-07T10:58:53.096Z,8.13
2023-08-07T11:01:27.447Z,8.95
2023-08-07T11:04:02.181Z,7.38
2023-08-07T11:06:39.288Z,6.38
2023-08-07T11:09:14.127Z,6.28
2023-08-07T11:11:51.307Z,8.98
2023-08-07T11:14:25.427Z,10.57
2023-08-07T11:16:59.593Z,9.77
2023-08-07T11:19:33.632Z,12.10
2023-08-07T11:22:07.384Z,9.48
2023-08-07T11:24:41.032Z,11.98
2023-08-07T11:27:17.303Z,7.60
2023-08-07T11:29:54.721Z,10.10
2023-08-07T11:32:30.191Z,10.75
2023-08-07T11:35:05.480Z,9.45
2023-08-07T11:37:39.172Z,6.50
2023-08-07T11:40:15.304Z,8.32
2023-08-07T11:42:51.448Z,9.55
2023-08-07T11:45:25.462Z,8.15
2023-08-07T11:47:59.215Z,7.43
2023-08-07T11:50:33.762Z,9.07
2023-08-07T11:53:07.734Z,6.90
2023-08-07T11:55:41.174Z,9.75
2023-08-07T11:58:16.186Z,7.13
2023-08-07T12:00:51.575Z,9.13
2023-08-07T12:03:32.061Z,7.75
2023-08-07T12:06:08.761Z,6.47
2023-08-07T12:08:44.154Z,6.90
2023-08-07T12:11:17.962Z,9.15
2023-08-07T12:13:54.791Z,7.40
2023-08-07T12:16:29.080Z,7.22
2023-08-07T12:19:03.469Z,9.02
2023-08-07T12:21:37.721Z,7.65
2023-08-07T12:24:14.371Z,7.35
2023-08-07T12:26:49.417Z,9.27
2023-08-07T12:29:35.024Z,7.65
2023-08-07T12:32:09.468Z,8.15
2023-08-07T12:37:20.783Z,8.48
2023-08-07T12:42:30.667Z,8.77
2023-08-07T12:45:06.820Z,11.57
2023-08-07T12:47:41.565Z,8.07
2023-08-07T12:50:15.705Z,9.93
2023-08-07T12:52:53.688Z,9.23
2023-08-07T12:55:32.975Z,11.60
2023-08-07T12:58:06.130Z,10.65
2023-08-07T13:00:51.973Z,8.57
2023-08-07T13:03:26.066Z,9.15
2023-08-07T13:05:59.222Z,8.40
2023-08-07T13:08:33.758Z,10.70
2023-08-07T13:11:06.853Z,9.18
2023-08-07T13:13:40.604Z,8.25
2023-08-07T13:16:15.691Z,9.73
2023-08-07T13:18:49.383Z,8.43
2023-08-07T13:21:23.135Z,8.88
2023-08-07T13:23:57.776Z,11.45
2023-08-07T13:26:31.474Z,10.35
2023-08-07T13:29:06.453Z,9.57
2023-08-07T13:31:44.806Z,10.45
2023-08-07T13:34:19.942Z,10.98
2023-08-07T13:36:54.748Z,9.52
2023-08-07T13:39:28.492Z,11.20
2023-08-07T13:42:02.488Z,11.95
2023-08-07T13:44:36.003Z,8.30
2023-08-07T13:47:12.479Z,7.60
2023-08-07T13:49:46.435Z,9.43
2023-08-07T13:52:25.204Z,10.30
2023-08-07T13:54:58.526Z,12.30
2023-08-07T13:57:39.942Z,11.35
2023-08-07T14:00:15.531Z,12.55
2023-08-07T14:02:52.743Z,9.82
2023-08-07T14:05:27.537Z,15.57
2023-08-07T14:08:03.083Z,9.55
2023-08-07T14:10:36.369Z,10.80
2023-08-07T14:13:10.219Z,12.30
2023-08-07T14:15:44.036Z,12.15
2023-08-07T14:18:19.283Z,9.60
2023-08-07T14:21:01.954Z,10.52
2023-08-07T14:23:37.131Z,12.77
2023-08-07T14:26:11.126Z,18.85
2023-08-07T14:28:47.195Z,14.23
2023-08-07T14:31:21.235Z,10.82
2023-08-07T14:33:57.320Z,9.82
2023-08-07T14:36:31.109Z,12.27
2023-08-07T14:39:06.073Z,13.40
2023-08-07T14:41:43.171Z,13.50
2023-08-07T14:44:16.802Z,16.83
2023-08-07T14:46:51.524Z,14.05
2023-08-07T14:49:27.194Z,12.88
2023-08-07T14:52:00.624Z,12.63
2023-08-07T14:54:34.280Z,11.20
2023-08-07T14:57:09.596Z,10.40
2023-08-07T14:59:43.135Z,12.18
2023-08-07T15:02:16.435Z,12.90
2023-08-07T15:04:54.194Z,11.98
2023-08-07T15:07:28.081Z,11.55
2023-08-07T15:10:02.746Z,10.05
2023-08-07T15:12:36.891Z,9.98
2023-08-07T15:15:10.723Z,10.90
2023-08-07T15:17:44.272Z,10.55
2023-08-07T15:20:22.454Z,11.15
2023-08-07T15:22:56.315Z,12.95
2023-08-07T15:25:29.727Z,13.45
2023-08-07T15:28:06.732Z,13.35
2023-08-07T15:30:45.288Z,14.55
2023-08-07T15:33:22.075Z,15.77
2023-08-07T15:36:02.420Z,16.65
2023-08-07T15:38:38.040Z,20.38
2023-08-07T15:41:12.424Z,18.48
2023-08-07T15:43:46.382Z,15.60
2023-08-07T15:46:20.285Z,19.58
2023-08-07T15:48:54.374Z,18.95
2023-08-07T15:51:30.786Z,19.02
2023-08-07T15:54:04.399Z,23.42
2023-08-07T15:56:37.224Z,18.40
2023-08-07T15:59:10.862Z,20.45
2023-08-07T16:01:44.052Z,19.38
2023-08-07T16:04:16.953Z,20.55
2023-08-07T16:06:51.584Z,24.10
2023-08-07T16:09:26.244Z,19.80
2023-08-07T16:12:00.373Z,21.70
2023-08-07T16:14:36.302Z,24.52
2023-08-07T16:17:12.025Z,25.00
2023-08-07T16:19:45.469Z,22.70
2023-08-07T16:22:22.021Z,26.45
2023-08-07T16:24:56.078Z,27.02
2023-08-07T16:27:30.489Z,22.08
2023-08-07T16:30:06.334Z,25.52
2023-08-07T16:32:40.938Z,25.95
2023-08-07T16:35:15.122Z,27.15
2023-08-07T16:37:50.253Z,25.60
2023-08-07T16:40:23.842Z,25.33
2023-08-07T16:42:58.306Z,24.48
2023-08-07T16:45:33.085Z,24.90
2023-08-07T16:48:06.920Z,26.63
2023-08-07T16:50:41.876Z,27.10
2023-08-07T16:53:19.458Z,29.15
2023-08-07T16:55:54.638Z,21.67
2023-08-07T16:58:28.700Z,25.65
2023-08-07T17:01:02.278Z,23.55
2023-08-07T17:03:35.562Z,23.52
2023-08-07T17:06:08.517Z,22.00
2023-08-07T17:08:44.336Z,20.83
2023-08-07T17:11:17.575Z,22.77
2023-08-07T17:13:51.560Z,25.20
2023-08-07T17:16:25.422Z,21.08
2023-08-07T17:18:59.429Z,21.05
2023-08-07T17:21:32.347Z,24.88
2023-08-07T17:24:07.829Z,37.25
2023-08-07T17:26:41.417Z,23.83
2023-08-07T17:29:15.125Z,24.73
2023-08-07T17:31:48.752Z,24.30
2023-08-07T17:34:21.983Z,21.85
2023-08-07T17:36:55.488Z,22.60
2023-08-07T17:39:30.432Z,19.95
2023-08-07T17:42:03.355Z,27.10
2023-08-07T17:44:36.945Z,26.08
2023-08-07T17:47:12.117Z,25.77
2023-08-07T17:49:45.390Z,23.77
2023-08-07T17:52:19.392Z,24.83
2023-08-07T17:54:54.842Z,25.40
2023-08-07T17:57:29.106Z,22.20
2023-08-07T18:00:03.640Z,22.20
2023-08-07T18:02:39.590Z,22.70
2023-08-07T18:05:13.433Z,25.65
2023-08-07T18:07:46.548Z,32.03
2023-08-07T18:10:21.793Z,22.27
2023-08-07T18:12:55.910Z,22.48
2023-08-07T18:15:29.869Z,30.20
2023-08-07T18:18:04.052Z,27.48
2023-08-07T18:20:37.663Z,26.13
2023-08-07T18:23:11.958Z,24.05
2023-08-07T18:25:47.522Z,24.35
2023-08-07T18:28:20.937Z,24.73
2023-08-07T18:30:54.147Z,27.08
2023-08-07T18:33:27.731Z,29.67
2023-08-07T18:36:02.893Z,29.73
2023-08-07T18:38:36.846Z,25.77
2023-08-07T18:41:11.807Z,27.77
2023-08-07T18:43:45.252Z,22.00
2023-08-07T18:46:20.303Z,29.30
2023-08-07T18:48:53.316Z,23.98
2023-08-07T18:51:26.229Z,23.65
2023-08-07T18:53:59.653Z,22.70
2023-08-07T18:56:35.548Z,21.55
2023-08-07T18:59:09.287Z,20.73
2023-08-07T19:01:42.813Z,22.48
2023-08-07T19:04:18.174Z,19.85
2023-08-07T19:06:51.920Z,19.70
2023-08-07T19:09:25.534Z,18.65
2023-08-07T19:12:01.050Z,19.77
2023-08-07T19:14:35.305Z,17.20
2023-08-07T19:17:09.679Z,16.40
2023-08-07T19:19:42.931Z,17.98
2023-08-07T19:22:16.732Z,17.35
2023-08-07T19:24:49.621Z,14.80
2023-08-07T19:27:25.322Z,22.30
2023-08-07T19:29:58.800Z,16.95
2023-08-07T19:32:32.221Z,16.00
2023-08-07T19:35:05.603Z,17.10
2023-08-07T19:37:38.789Z,18.27
2023-08-07T19:40:13.858Z,16.23
2023-08-07T19:42:49.070Z,15.60
2023-08-07T19:45:22.757Z,18.75
2023-08-07T19:47:56.113Z,16.75
2023-08-07T19:50:29.094Z,16.67
2023-08-07T19:53:02.249Z,13.88
2023-08-07T19:55:35.629Z,17.80
2023-08-07T19:58:11.173Z,18.27
2023-08-07T20:00:44.521Z,14.65
2023-08-07T20:03:18.655Z,17.40
2023-08-07T20:05:52.239Z,20.50
2023-08-07T20:08:25.879Z,19.08
2023-08-07T20:11:01.045Z,18.75
2023-08-07T20:13:36.842Z,20.25
2023-08-07T20:16:13.066Z,22.13
2023-08-07T20:18:46.846Z,19.55
2023-08-07T20:21:21.045Z,22.27
2023-08-07T20:23:54.642Z,16.88
2023-08-07T20:26:28.229Z,20.10
2023-08-07T20:29:03.658Z,16.73
2023-08-07T20:31:37.270Z,20.58
2023-08-07T20:34:10.582Z,18.90
2023-08-07T20:36:43.859Z,20.75
2023-08-07T20:39:18.583Z,21.30
2023-08-07T20:41:52.303Z,19.77
2023-08-07T20:44:28.217Z,21.95
2023-08-07T20:47:01.574Z,17.10
2023-08-07T20:49:35.455Z,17.88
2023-08-07T20:52:10.389Z,19.38
2023-08-07T20:54:43.374Z,18.60
2023-08-07T20:57:17.384Z,19.45
2023-08-07T20:59:53.503Z,20.85
2023-08-07T21:02:26.787Z,17.17
2023-08-07T21:04:59.923Z,15.85
2023-08-07T21:07:33.269Z,16.30
2023-08-07T21:10:06.804Z,20.65
2023-08-07T21:12:40.353Z,16.92
2023-08-07T21:15:17.892Z,16.67
2023-08-07T21:17:51.213Z,19.35
2023-08-07T21:20:24.163Z,18.00
2023-08-07T21:22:58.377Z,23.13
2023-08-07T21:25:31.459Z,17.08
2023-08-07T21:28:04.496Z,16.80
2023-08-07T21:30:40.104Z,22.73
2023-08-07T21:33:13.167Z,17.35
2023-08-07T21:35:45.946Z,15.05
2023-08-07T21:38:20.406Z,19.00
2023-08-07T21:40:53.562Z,21.38
2023-08-07T21:43:28.485Z,15.07
2023-08-07T21:46:03.535Z,16.05
2023-08-07T21:48:36.383Z,14.38
2023-08-07T21:51:10.493Z,15.90
2023-08-07T21:53:43.685Z,16.65
2023-08-07T21:56:16.905Z,16.25
2023-08-07T21:58:50.065Z,14.02
2023-08-07T22:01:25.366Z,13.45
2023-08-07T22:03:59.301Z,13.88
2023-08-07T22:06:32.952Z,13.30
2023-08-07T22:09:07.047Z,13.88
2023-08-07T22:11:40.398Z,15.10
2023-08-07T22:14:13.702Z,18.20
2023-08-07T22:16:49.937Z,12.63
2023-08-07T22:19:23.950Z,14.15
2023-08-07T22:21:57.468Z,12.50
2023-08-07T22:24:30.663Z,14.18
2023-08-07T22:27:03.916Z,12.35
2023-08-07T22:29:36.761Z,13.88
2023-08-07T22:32:12.065Z,13.00
2023-08-07T22:34:44.911Z,13.27
2023-08-07T22:37:17.729Z,12.63
2023-08-07T22:39:52.419Z,12.02
2023-08-07T22:42:25.630Z,13.93
2023-08-07T22:44:58.837Z,15.80
2023-08-07T22:47:35.842Z,16.10
2023-08-07T22:50:09.616Z,14.13
2023-08-07T22:52:42.849Z,15.40
2023-08-07T22:55:16.068Z,12.13
2023-08-07T22:57:49.267Z,15.27
2023-08-07T23:00:23.376Z,11.60
2023-08-07T23:03:00.427Z,11.70
2023-08-07T23:05:34.195Z,11.95
2023-08-07T23:08:07.494Z,12.85
2023-08-07T23:10:41.095Z,12.02
2023-08-07T23:13:14.955Z,10.23
2023-08-07T23:15:49.533Z,12.75
2023-08-07T23:18:25.938Z,12.45
2023-08-07T23:20:59.582Z,12.82
2023-08-07T23:23:33.349Z,11.10
2023-08-07T23:26:07.016Z,11.15
2023-08-07T23:28:40.640Z,10.75
2023-08-07T23:31:13.939Z,17.45
2023-08-07T23:33:51.352Z,13.77
2023-08-07T23:36:24.862Z,16.40
2023-08-07T23:39:00.536Z,13.23
2023-08-07T23:41:34.545Z,11.50
2023-08-07T23:44:08.318Z,11.82
2023-08-07T23:46:41.956Z,12.93
2023-08-07T23:49:17.130Z,12.07
2023-08-07T23:51:50.635Z,15.70
2023-08-07T23:54:24.058Z,13.05
2023-08-07T23:56:57.017Z,13.77
2023-08-07T23:59:30.111Z,12.25
